sensor_id;sensor_type;location;lat;lon;timestamp;noise_LAeq;noise_LA_min;noise_LA_max;noise_LA01;noise_LA95
76338;Laerm;20358;50.272;19.026;2023-05-07T00:01:42;42.91;34.64;56.95;;
76338;Laerm;20358;50.272;19.026;2023-05-07T00:04:49;46.09;36.38;66.30;;
76338;Laerm;20358;50.272;19.026;2023-05-07T00:07:54;43.96;35.05;63.13;;
76338;Laerm;20358;50.272;19.026;2023-05-07T00:11:04;43.48;35.65;55.60;;
76338;Laerm;20358;50.272;19.026;2023-05-07T00:14:10;45.31;34.82;59.77;;
76338;Laerm;20358;50.272;19.026;2023-05-07T00:17:16;44.84;34.99;57.71;;
76338;Laerm;20358;50.272;19.026;2023-05-07T00:20:22;47.74;37.82;68.40;;
76338;Laerm;20358;50.272;19.026;2023-05-07T00:23:28;44.51;35.14;66.05;;
76338;Laerm;20358;50.272;19.026;2023-05-07T00:26:36;45.88;34.91;67.54;;
76338;Laerm;20358;50.272;19.026;2023-05-07T00:29:43;44.72;35.10;62.35;;
76338;Laerm;20358;50.272;19.026;2023-05-07T00:32:48;40.57;33.99;55.78;;
76338;Laerm;20358;50.272;19.026;2023-05-07T00:35:55;45.77;35.17;68.24;;
76338;Laerm;20358;50.272;19.026;2023-05-07T00:39:01;43.75;34.69;57.18;;
76338;Laerm;20358;50.272;19.026;2023-05-07T00:42:10;43.88;34.38;59.01;;
76338;Laerm;20358;50.272;19.026;2023-05-07T00:45:17;47.13;35.83;62.07;;
76338;Laerm;20358;50.272;19.026;2023-05-07T00:48:25;43.67;34.00;68.11;;
76338;Laerm;20358;50.272;19.026;2023-05-07T00:51:33;43.39;34.50;64.00;;
76338;Laerm;20358;50.272;19.026;2023-05-07T00:54:42;40.72;34.45;57.22;;
76338;Laerm;20358;50.272;19.026;2023-05-07T00:57:51;43.41;34.05;67.51;;
76338;Laerm;20358;50.272;19.026;2023-05-07T01:00:57;41.48;34.00;61.38;;
76338;Laerm;20358;50.272;19.026;2023-05-07T01:04:03;42.75;34.64;58.19;;
76338;Laerm;20358;50.272;19.026;2023-05-07T01:07:10;41.27;34.03;57.48;;
76338;Laerm;20358;50.272;19.026;2023-05-07T01:10:17;42.05;34.10;60.06;;
76338;Laerm;20358;50.272;19.026;2023-05-07T01:13:28;42.64;34.10;60.03;;
76338;Laerm;20358;50.272;19.026;2023-05-07T01:16:34;43.60;34.99;57.04;;
76338;Laerm;20358;50.272;19.026;2023-05-07T01:19:40;39.90;34.30;51.68;;
76338;Laerm;20358;50.272;19.026;2023-05-07T01:22:50;44.87;34.50;70.03;;
76338;Laerm;20358;50.272;19.026;2023-05-07T01:25:57;41.85;33.69;61.12;;
76338;Laerm;20358;50.272;19.026;2023-05-07T01:29:04;44.04;34.42;60.14;;
76338;Laerm;20358;50.272;19.026;2023-05-07T01:32:13;40.94;34.26;55.83;;
76338;Laerm;20358;50.272;19.026;2023-05-07T01:35:30;44.40;34.62;67.01;;
76338;Laerm;20358;50.272;19.026;2023-05-07T01:38:42;44.55;34.23;59.24;;
76338;Laerm;20358;50.272;19.026;2023-05-07T01:41:49;45.42;34.44;68.32;;
76338;Laerm;20358;50.272;19.026;2023-05-07T01:44:56;44.83;34.44;66.98;;
76338;Laerm;20358;50.272;19.026;2023-05-07T01:48:03;38.79;33.70;54.27;;
76338;Laerm;20358;50.272;19.026;2023-05-07T01:51:10;42.25;33.92;66.87;;
76338;Laerm;20358;50.272;19.026;2023-05-07T01:54:18;39.95;34.17;55.19;;
76338;Laerm;20358;50.272;19.026;2023-05-07T01:57:25;43.76;34.31;59.15;;
76338;Laerm;20358;50.272;19.026;2023-05-07T02:00:31;43.52;34.79;61.34;;
76338;Laerm;20358;50.272;19.026;2023-05-07T02:03:38;40.48;34.71;55.76;;
76338;Laerm;20358;50.272;19.026;2023-05-07T02:06:51;44.12;35.07;66.79;;
76338;Laerm;20358;50.272;19.026;2023-05-07T02:10:02;43.42;34.69;61.49;;
76338;Laerm;20358;50.272;19.026;2023-05-07T02:13:08;42.46;33.94;58.98;;
76338;Laerm;20358;50.272;19.026;2023-05-07T02:16:15;42.20;34.59;56.35;;
76338;Laerm;20358;50.272;19.026;2023-05-07T02:19:22;44.57;35.11;70.21;;
76338;Laerm;20358;50.272;19.026;2023-05-07T02:22:28;44.81;35.16;64.23;;
76338;Laerm;20358;50.272;19.026;2023-05-07T02:25:37;44.57;34.73;67.58;;
76338;Laerm;20358;50.272;19.026;2023-05-07T02:28:44;41.73;34.74;54.29;;
76338;Laerm;20358;50.272;19.026;2023-05-07T02:31:49;43.50;34.92;66.54;;
76338;Laerm;20358;50.272;19.026;2023-05-07T02:34:56;44.79;34.81;69.04;;
76338;Laerm;20358;50.272;19.026;2023-05-07T02:38:02;45.34;35.47;65.26;;
76338;Laerm;20358;50.272;19.026;2023-05-07T02:41:12;47.77;34.29;66.91;;
76338;Laerm;20358;50.272;19.026;2023-05-07T02:44:18;47.28;37.05;66.75;;
76338;Laerm;20358;50.272;19.026;2023-05-07T02:47:26;45.94;35.01;63.65;;
76338;Laerm;20358;50.272;19.026;2023-05-07T02:50:33;41.94;34.82;69.66;;
76338;Laerm;20358;50.272;19.026;2023-05-07T02:53:40;45.21;35.52;63.86;;
76338;Laerm;20358;50.272;19.026;2023-05-07T02:56:48;44.69;34.79;63.11;;
76338;Laerm;20358;50.272;19.026;2023-05-07T02:59:55;44.70;34.76;63.18;;
76338;Laerm;20358;50.272;19.026;2023-05-07T03:03:03;45.20;35.44;65.51;;
76338;Laerm;20358;50.272;19.026;2023-05-07T03:06:09;43.91;34.72;66.54;;
76338;Laerm;20358;50.272;19.026;2023-05-07T03:09:15;43.86;35.33;62.33;;
76338;Laerm;20358;50.272;19.026;2023-05-07T03:12:25;43.78;34.65;60.96;;
76338;Laerm;20358;50.272;19.026;2023-05-07T03:15:31;49.22;34.81;67.33;;
76338;Laerm;20358;50.272;19.026;2023-05-07T03:18:37;49.85;36.13;67.59;;
76338;Laerm;20358;50.272;19.026;2023-05-07T03:21:43;46.16;35.60;66.75;;
76338;Laerm;20358;50.272;19.026;2023-05-07T03:24:49;45.07;36.28;60.83;;
76338;Laerm;20358;50.272;19.026;2023-05-07T03:27:58;49.89;36.25;68.94;;
76338;Laerm;20358;50.272;19.026;2023-05-07T03:31:13;45.81;36.33;63.50;;
76338;Laerm;20358;50.272;19.026;2023-05-07T03:34:19;44.18;34.91;58.96;;
76338;Laerm;20358;50.272;19.026;2023-05-07T03:37:26;44.93;34.72;66.10;;
76338;Laerm;20358;50.272;19.026;2023-05-07T03:40:32;47.45;36.18;68.33;;
76338;Laerm;20358;50.272;19.026;2023-05-07T03:43:43;44.79;34.15;70.49;;
76338;Laerm;20358;50.272;19.026;2023-05-07T03:46:48;48.84;37.45;69.16;;
76338;Laerm;20358;50.272;19.026;2023-05-07T03:49:55;45.54;35.56;63.88;;
76338;Laerm;20358;50.272;19.026;2023-05-07T03:53:01;46.85;35.34;62.22;;
76338;Laerm;20358;50.272;19.026;2023-05-07T03:56:12;46.82;35.63;67.23;;
76338;Laerm;20358;50.272;19.026;2023-05-07T03:59:24;46.93;34.66;63.78;;
76338;Laerm;20358;50.272;19.026;2023-05-07T04:02:30;47.32;35.35;69.64;;
76338;Laerm;20358;50.272;19.026;2023-05-07T04:05:37;46.50;35.83;64.03;;
76338;Laerm;20358;50.272;19.026;2023-05-07T04:08:44;46.61;35.18;69.30;;
76338;Laerm;20358;50.272;19.026;2023-05-07T04:11:49;50.12;35.97;72.18;;
76338;Laerm;20358;50.272;19.026;2023-05-07T04:14:59;46.06;36.02;61.70;;
76338;Laerm;20358;50.272;19.026;2023-05-07T04:18:04;46.20;35.69;65.70;;
76338;Laerm;20358;50.272;19.026;2023-05-07T04:21:16;52.75;35.80;76.17;;
76338;Laerm;20358;50.272;19.026;2023-05-07T04:24:24;49.76;35.41;67.84;;
76338;Laerm;20358;50.272;19.026;2023-05-07T04:27:31;47.47;35.91;67.79;;
76338;Laerm;20358;50.272;19.026;2023-05-07T04:30:40;47.42;35.78;68.39;;
76338;Laerm;20358;50.272;19.026;2023-05-07T04:33:47;50.17;35.46;68.57;;
76338;Laerm;20358;50.272;19.026;2023-05-07T04:36:53;44.51;34.28;64.68;;
76338;Laerm;20358;50.272;19.026;2023-05-07T04:40:00;46.63;35.01;65.34;;
76338;Laerm;20358;50.272;19.026;2023-05-07T04:43:06;45.58;37.25;61.04;;
76338;Laerm;20358;50.272;19.026;2023-05-07T04:46:22;46.87;36.88;68.75;;
76338;Laerm;20358;50.272;19.026;2023-05-07T04:49:31;46.29;36.71;64.32;;
76338;Laerm;20358;50.272;19.026;2023-05-07T04:52:38;47.73;36.27;64.49;;
76338;Laerm;20358;50.272;19.026;2023-05-07T04:55:44;46.86;35.73;62.95;;
76338;Laerm;20358;50.272;19.026;2023-05-07T04:58:51;45.99;35.14;60.26;;
76338;Laerm;20358;50.272;19.026;2023-05-07T05:02:00;44.41;34.83;61.83;;
76338;Laerm;20358;50.272;19.026;2023-05-07T05:05:08;43.86;35.32;59.91;;
76338;Laerm;20358;50.272;19.026;2023-05-07T05:08:14;43.83;36.23;53.13;;
76338;Laerm;20358;50.272;19.026;2023-05-07T05:11:21;45.81;34.58;60.04;;
76338;Laerm;20358;50.272;19.026;2023-05-07T05:14:28;43.39;34.88;63.11;;
76338;Laerm;20358;50.272;19.026;2023-05-07T05:17:38;49.58;37.87;65.99;;
76338;Laerm;20358;50.272;19.026;2023-05-07T05:20:45;50.12;35.87;70.34;;
76338;Laerm;20358;50.272;19.026;2023-05-07T05:23:51;50.10;34.84;65.61;;
76338;Laerm;20358;50.272;19.026;2023-05-07T05:26:59;45.08;36.51;64.42;;
76338;Laerm;20358;50.272;19.026;2023-05-07T05:30:08;44.98;36.01;64.73;;
76338;Laerm;20358;50.272;19.026;2023-05-07T05:33:19;45.75;36.52;60.17;;
76338;Laerm;20358;50.272;19.026;2023-05-07T05:36:25;45.42;35.82;61.18;;
76338;Laerm;20358;50.272;19.026;2023-05-07T05:39:32;44.67;36.79;56.39;;
76338;Laerm;20358;50.272;19.026;2023-05-07T05:42:40;49.46;37.76;68.51;;
76338;Laerm;20358;50.272;19.026;2023-05-07T05:45:46;45.04;35.71;61.17;;
76338;Laerm;20358;50.272;19.026;2023-05-07T05:48:56;46.18;36.14;66.87;;
76338;Laerm;20358;50.272;19.026;2023-05-07T05:52:02;47.46;39.06;67.92;;
76338;Laerm;20358;50.272;19.026;2023-05-07T05:55:10;48.46;36.24;68.43;;
76338;Laerm;20358;50.272;19.026;2023-05-07T05:58:16;44.67;35.66;66.83;;
76338;Laerm;20358;50.272;19.026;2023-05-07T06:01:28;46.92;35.34;63.24;;
76338;Laerm;20358;50.272;19.026;2023-05-07T06:04:39;46.05;37.85;70.67;;
76338;Laerm;20358;50.272;19.026;2023-05-07T06:07:49;49.23;36.43;73.13;;
76338;Laerm;20358;50.272;19.026;2023-05-07T06:10:56;52.31;36.29;69.54;;
76338;Laerm;20358;50.272;19.026;2023-05-07T06:14:04;48.33;37.20;66.87;;
76338;Laerm;20358;50.272;19.026;2023-05-07T06:17:10;48.56;37.19;68.61;;
76338;Laerm;20358;50.272;19.026;2023-05-07T06:20:20;50.02;36.39;69.42;;
76338;Laerm;20358;50.272;19.026;2023-05-07T06:23:25;50.71;37.99;70.92;;
76338;Laerm;20358;50.272;19.026;2023-05-07T06:26:32;47.71;36.34;67.61;;
76338;Laerm;20358;50.272;19.026;2023-05-07T06:29:37;45.61;36.32;63.12;;
76338;Laerm;20358;50.272;19.026;2023-05-07T06:32:49;49.19;35.42;69.39;;
76338;Laerm;20358;50.272;19.026;2023-05-07T06:35:58;46.45;36.47;56.50;;
76338;Laerm;20358;50.272;19.026;2023-05-07T06:39:05;49.10;37.41;70.77;;
76338;Laerm;20358;50.272;19.026;2023-05-07T06:42:11;49.44;37.28;65.37;;
76338;Laerm;20358;50.272;19.026;2023-05-07T06:45:20;48.76;38.25;69.68;;
76338;Laerm;20358;50.272;19.026;2023-05-07T06:48:28;50.58;39.22;66.76;;
76338;Laerm;20358;50.272;19.026;2023-05-07T06:51:43;53.05;37.66;66.99;;
76338;Laerm;20358;50.272;19.026;2023-05-07T06:54:48;51.63;37.27;68.90;;
76338;Laerm;20358;50.272;19.026;2023-05-07T06:57:57;49.21;37.53;70.57;;
76338;Laerm;20358;50.272;19.026;2023-05-07T07:01:04;49.29;36.55;65.70;;
76338;Laerm;20358;50.272;19.026;2023-05-07T07:04:11;47.64;36.79;61.39;;
76338;Laerm;20358;50.272;19.026;2023-05-07T07:07:22;47.12;36.31;67.29;;
76338;Laerm;20358;50.272;19.026;2023-05-07T07:10:29;48.19;36.27;66.14;;
76338;Laerm;20358;50.272;19.026;2023-05-07T07:13:36;50.48;36.59;74.03;;
76338;Laerm;20358;50.272;19.026;2023-05-07T07:16:43;50.22;37.29;70.11;;
76338;Laerm;20358;50.272;19.026;2023-05-07T07:19:51;47.55;37.96;64.39;;
76338;Laerm;20358;50.272;19.026;2023-05-07T07:23:01;51.26;37.94;71.55;;
76338;Laerm;20358;50.272;19.026;2023-05-07T07:26:06;51.60;38.59;69.41;;
76338;Laerm;20358;50.272;19.026;2023-05-07T07:29:13;47.74;38.02;67.96;;
76338;Laerm;20358;50.272;19.026;2023-05-07T07:32:19;46.20;37.75;61.30;;
76338;Laerm;20358;50.272;19.026;2023-05-07T07:35:27;48.82;37.22;68.43;;
76338;Laerm;20358;50.272;19.026;2023-05-07T07:38:35;48.54;39.54;62.83;;
76338;Laerm;20358;50.272;19.026;2023-05-07T07:41:43;50.35;39.99;62.91;;
76338;Laerm;20358;50.272;19.026;2023-05-07T07:44:49;52.39;37.88;70.53;;
76338;Laerm;20358;50.272;19.026;2023-05-07T07:47:58;48.85;37.03;65.55;;
76338;Laerm;20358;50.272;19.026;2023-05-07T07:51:08;51.61;37.69;66.56;;
76338;Laerm;20358;50.272;19.026;2023-05-07T07:54:17;54.23;40.79;71.80;;
76338;Laerm;20358;50.272;19.026;2023-05-07T07:57:23;49.65;36.67;66.26;;
76338;Laerm;20358;50.272;19.026;2023-05-07T08:00:30;49.11;36.28;68.08;;
76338;Laerm;20358;50.272;19.026;2023-05-07T08:03:36;49.94;38.18;70.53;;
76338;Laerm;20358;50.272;19.026;2023-05-07T08:06:42;49.89;38.62;65.70;;
76338;Laerm;20358;50.272;19.026;2023-05-07T08:09:52;55.09;37.60;85.55;;
76338;Laerm;20358;50.272;19.026;2023-05-07T08:13:01;51.54;40.12;67.80;;
76338;Laerm;20358;50.272;19.026;2023-05-07T08:16:08;52.75;38.30;72.27;;
76338;Laerm;20358;50.272;19.026;2023-05-07T08:19:16;50.10;37.11;70.36;;
76338;Laerm;20358;50.272;19.026;2023-05-07T08:22:22;52.78;39.40;69.90;;
76338;Laerm;20358;50.272;19.026;2023-05-07T08:25:33;53.10;39.43;70.85;;
76338;Laerm;20358;50.272;19.026;2023-05-07T08:28:40;50.59;40.40;69.54;;
76338;Laerm;20358;50.272;19.026;2023-05-07T08:31:46;48.94;37.92;63.62;;
76338;Laerm;20358;50.272;19.026;2023-05-07T08:34:52;49.13;39.43;64.79;;
76338;Laerm;20358;50.272;19.026;2023-05-07T08:37:58;50.92;39.16;65.50;;
76338;Laerm;20358;50.272;19.026;2023-05-07T08:41:10;48.63;38.09;68.67;;
76338;Laerm;20358;50.272;19.026;2023-05-07T08:44:26;51.75;43.07;65.05;;
76338;Laerm;20358;50.272;19.026;2023-05-07T08:47:40;50.93;41.24;69.23;;
76338;Laerm;20358;50.272;19.026;2023-05-07T08:50:50;50.60;39.47;72.13;;
76338;Laerm;20358;50.272;19.026;2023-05-07T08:53:56;53.05;39.15;72.96;;
76338;Laerm;20358;50.272;19.026;2023-05-07T08:57:10;51.08;39.33;73.10;;
76338;Laerm;20358;50.272;19.026;2023-05-07T09:00:16;51.59;38.62;68.49;;
76338;Laerm;20358;50.272;19.026;2023-05-07T09:03:26;48.68;39.19;69.75;;
76338;Laerm;20358;50.272;19.026;2023-05-07T09:06:33;50.15;39.29;63.74;;
76338;Laerm;20358;50.272;19.026;2023-05-07T09:09:41;51.69;38.56;67.78;;
76338;Laerm;20358;50.272;19.026;2023-05-07T09:12:50;52.82;37.58;70.48;;
76338;Laerm;20358;50.272;19.026;2023-05-07T09:15:57;51.08;38.46;64.49;;
76338;Laerm;20358;50.272;19.026;2023-05-07T09:19:03;50.17;40.18;67.10;;
76338;Laerm;20358;50.272;19.026;2023-05-07T09:22:10;52.25;39.23;73.98;;
76338;Laerm;20358;50.272;19.026;2023-05-07T09:25:40;54.57;40.14;72.38;;
76338;Laerm;20358;50.272;19.026;2023-05-07T09:28:57;51.47;40.11;72.97;;
76338;Laerm;20358;50.272;19.026;2023-05-07T09:32:04;54.15;39.22;71.75;;
76338;Laerm;20358;50.272;19.026;2023-05-07T09:35:15;53.74;40.32;73.69;;
76338;Laerm;20358;50.272;19.026;2023-05-07T09:38:28;54.89;39.50;73.15;;
76338;Laerm;20358;50.272;19.026;2023-05-07T09:41:44;53.34;41.16;71.11;;
76338;Laerm;20358;50.272;19.026;2023-05-07T09:45:14;52.89;39.56;72.85;;
76338;Laerm;20358;50.272;19.026;2023-05-07T09:48:21;59.44;39.02;79.38;;
76338;Laerm;20358;50.272;19.026;2023-05-07T09:51:36;57.69;39.31;77.32;;
76338;Laerm;20358;50.272;19.026;2023-05-07T09:54:48;55.96;41.69;72.26;;
76338;Laerm;20358;50.272;19.026;2023-05-07T09:57:59;52.29;37.76;74.10;;
76338;Laerm;20358;50.272;19.026;2023-05-07T10:01:12;54.02;39.30;75.63;;
76338;Laerm;20358;50.272;19.026;2023-05-07T10:04:20;51.70;37.74;70.78;;
76338;Laerm;20358;50.272;19.026;2023-05-07T10:07:28;50.22;36.90;60.99;;
76338;Laerm;20358;50.272;19.026;2023-05-07T10:10:41;49.81;39.04;66.63;;
76338;Laerm;20358;50.272;19.026;2023-05-07T10:13:53;50.04;38.53;67.21;;
76338;Laerm;20358;50.272;19.026;2023-05-07T10:17:02;52.62;39.50;72.83;;
76338;Laerm;20358;50.272;19.026;2023-05-07T10:20:10;51.48;39.26;64.81;;
76338;Laerm;20358;50.272;19.026;2023-05-07T10:23:24;51.43;39.68;68.23;;
76338;Laerm;20358;50.272;19.026;2023-05-07T10:26:37;51.33;40.45;70.83;;
76338;Laerm;20358;50.272;19.026;2023-05-07T10:30:00;51.07;38.03;69.23;;
76338;Laerm;20358;50.272;19.026;2023-05-07T10:33:23;53.89;39.25;81.80;;
76338;Laerm;20358;50.272;19.026;2023-05-07T10:36:33;52.92;41.00;71.30;;
76338;Laerm;20358;50.272;19.026;2023-05-07T10:39:42;52.40;40.71;71.40;;
76338;Laerm;20358;50.272;19.026;2023-05-07T10:42:57;52.70;40.16;66.97;;
76338;Laerm;20358;50.272;19.026;2023-05-07T10:46:17;53.11;40.00;68.88;;
76338;Laerm;20358;50.272;19.026;2023-05-07T10:53:26;53.82;41.21;75.42;;
76338;Laerm;20358;50.272;19.026;2023-05-07T10:56:43;53.58;38.62;71.93;;
76338;Laerm;20358;50.272;19.026;2023-05-07T10:59:56;54.00;38.39;72.41;;
76338;Laerm;20358;50.272;19.026;2023-05-07T11:03:08;53.00;39.52;68.89;;
76338;Laerm;20358;50.272;19.026;2023-05-07T11:06:24;53.98;39.97;71.66;;
76338;Laerm;20358;50.272;19.026;2023-05-07T11:09:58;51.96;39.29;67.06;;
76338;Laerm;20358;50.272;19.026;2023-05-07T11:13:52;52.45;39.63;67.88;;
76338;Laerm;20358;50.272;19.026;2023-05-07T11:17:26;51.76;38.07;66.23;;
76338;Laerm;20358;50.272;19.026;2023-05-07T11:20:49;50.10;39.25;66.37;;
76338;Laerm;20358;50.272;19.026;2023-05-07T11:24:15;50.59;38.66;63.87;;
76338;Laerm;20358;50.272;19.026;2023-05-07T11:27:33;50.07;37.36;68.56;;
76338;Laerm;20358;50.272;19.026;2023-05-07T11:30:42;52.69;38.46;69.90;;
76338;Laerm;20358;50.272;19.026;2023-05-07T11:33:54;53.18;37.87;69.62;;
76338;Laerm;20358;50.272;19.026;2023-05-07T11:37:01;57.23;39.27;74.52;;
76338;Laerm;20358;50.272;19.026;2023-05-07T11:40:26;55.16;41.16;77.12;;
76338;Laerm;20358;50.272;19.026;2023-05-07T11:43:32;52.66;39.94;70.26;;
76338;Laerm;20358;50.272;19.026;2023-05-07T11:46:43;57.97;39.50;73.99;;
76338;Laerm;20358;50.272;19.026;2023-05-07T11:49:53;51.70;39.75;70.30;;
76338;Laerm;20358;50.272;19.026;2023-05-07T11:53:20;51.55;40.16;68.36;;
76338;Laerm;20358;50.272;19.026;2023-05-07T11:56:35;53.32;40.21;67.98;;
76338;Laerm;20358;50.272;19.026;2023-05-07T11:59:41;52.52;38.66;66.80;;
76338;Laerm;20358;50.272;19.026;2023-05-07T12:02:47;66.30;40.81;93.49;;
76338;Laerm;20358;50.272;19.026;2023-05-07T12:05:54;57.35;41.02;73.12;;
76338;Laerm;20358;50.272;19.026;2023-05-07T12:09:01;54.03;41.10;75.99;;
76338;Laerm;20358;50.272;19.026;2023-05-07T12:12:12;51.40;39.84;64.92;;
76338;Laerm;20358;50.272;19.026;2023-05-07T12:15:22;50.05;39.06;66.36;;
76338;Laerm;20358;50.272;19.026;2023-05-07T12:18:29;52.48;38.69;75.93;;
76338;Laerm;20358;50.272;19.026;2023-05-07T12:21:36;53.54;39.72;68.35;;
76338;Laerm;20358;50.272;19.026;2023-05-07T12:24:46;50.51;37.88;67.28;;
76338;Laerm;20358;50.272;19.026;2023-05-07T12:27:55;51.67;39.25;70.26;;
76338;Laerm;20358;50.272;19.026;2023-05-07T12:31:02;50.87;40.02;67.58;;
76338;Laerm;20358;50.272;19.026;2023-05-07T12:34:08;49.92;37.83;65.80;;
76338;Laerm;20358;50.272;19.026;2023-05-07T12:37:22;52.41;38.36;70.84;;
76338;Laerm;20358;50.272;19.026;2023-05-07T12:40:37;49.94;37.05;68.68;;
76338;Laerm;20358;50.272;19.026;2023-05-07T12:43:47;48.95;37.42;63.60;;
76338;Laerm;20358;50.272;19.026;2023-05-07T12:46:53;53.61;39.31;73.46;;
76338;Laerm;20358;50.272;19.026;2023-05-07T12:49:59;49.88;40.25;63.94;;
76338;Laerm;20358;50.272;19.026;2023-05-07T12:53:11;56.18;40.22;73.78;;
76338;Laerm;20358;50.272;19.026;2023-05-07T12:56:18;51.73;39.48;72.35;;
76338;Laerm;20358;50.272;19.026;2023-05-07T12:59:39;50.32;40.53;64.82;;
76338;Laerm;20358;50.272;19.026;2023-05-07T13:02:46;53.44;39.14;70.47;;
76338;Laerm;20358;50.272;19.026;2023-05-07T13:05:58;50.91;37.46;64.34;;
76338;Laerm;20358;50.272;19.026;2023-05-07T13:09:21;54.49;38.93;75.04;;
76338;Laerm;20358;50.272;19.026;2023-05-07T13:12:49;53.88;38.86;67.70;;
76338;Laerm;20358;50.272;19.026;2023-05-07T13:15:59;50.31;36.68;68.18;;
76338;Laerm;20358;50.272;19.026;2023-05-07T13:19:05;53.19;39.46;74.64;;
76338;Laerm;20358;50.272;19.026;2023-05-07T13:22:11;51.05;40.44;65.48;;
76338;Laerm;20358;50.272;19.026;2023-05-07T13:25:17;50.28;38.85;64.05;;
76338;Laerm;20358;50.272;19.026;2023-05-07T13:28:25;50.13;38.05;66.51;;
76338;Laerm;20358;50.272;19.026;2023-05-07T13:31:34;50.35;39.35;68.65;;
76338;Laerm;20358;50.272;19.026;2023-05-07T13:34:41;49.65;37.49;59.63;;
76338;Laerm;20358;50.272;19.026;2023-05-07T13:37:46;50.44;37.65;63.81;;
76338;Laerm;20358;50.272;19.026;2023-05-07T13:40:55;49.63;37.51;66.72;;
76338;Laerm;20358;50.272;19.026;2023-05-07T13:44:00;47.19;36.51;59.71;;
76338;Laerm;20358;50.272;19.026;2023-05-07T13:47:10;50.54;41.20;63.49;;
76338;Laerm;20358;50.272;19.026;2023-05-07T13:50:16;50.16;36.80;66.07;;
76338;Laerm;20358;50.272;19.026;2023-05-07T13:53:23;51.57;38.90;66.59;;
76338;Laerm;20358;50.272;19.026;2023-05-07T13:56:28;55.34;40.13;81.04;;
76338;Laerm;20358;50.272;19.026;2023-05-07T13:59:35;52.62;39.89;72.37;;
76338;Laerm;20358;50.272;19.026;2023-05-07T14:02:44;49.51;39.25;64.72;;
76338;Laerm;20358;50.272;19.026;2023-05-07T14:05:50;50.52;38.00;62.19;;
76338;Laerm;20358;50.272;19.026;2023-05-07T14:08:56;51.36;39.88;67.63;;
76338;Laerm;20358;50.272;19.026;2023-05-07T14:12:07;50.54;40.55;64.11;;
76338;Laerm;20358;50.272;19.026;2023-05-07T14:15:14;54.15;42.75;71.11;;
76338;Laerm;20358;50.272;19.026;2023-05-07T14:18:23;49.29;39.18;62.53;;
76338;Laerm;20358;50.272;19.026;2023-05-07T14:21:31;51.40;38.30;67.61;;
76338;Laerm;20358;50.272;19.026;2023-05-07T14:24:37;51.76;39.51;68.50;;
76338;Laerm;20358;50.272;19.026;2023-05-07T14:27:43;60.21;37.57;78.62;;
76338;Laerm;20358;50.272;19.026;2023-05-07T14:30:50;50.89;39.81;65.66;;
76338;Laerm;20358;50.272;19.026;2023-05-07T14:33:59;50.76;39.35;65.35;;
76338;Laerm;20358;50.272;19.026;2023-05-07T14:37:05;50.55;38.47;65.14;;
76338;Laerm;20358;50.272;19.026;2023-05-07T14:40:12;54.30;42.45;73.46;;
76338;Laerm;20358;50.272;19.026;2023-05-07T14:43:18;53.06;41.55;74.40;;
76338;Laerm;20358;50.272;19.026;2023-05-07T14:46:25;50.21;38.57;64.28;;
76338;Laerm;20358;50.272;19.026;2023-05-07T14:49:34;50.11;37.68;66.68;;
76338;Laerm;20358;50.272;19.026;2023-05-07T14:52:40;50.52;37.10;67.18;;
76338;Laerm;20358;50.272;19.026;2023-05-07T14:55:47;52.03;37.28;70.01;;
76338;Laerm;20358;50.272;19.026;2023-05-07T14:58:53;52.20;37.27;63.56;;
76338;Laerm;20358;50.272;19.026;2023-05-07T15:02:00;51.90;39.62;65.23;;
76338;Laerm;20358;50.272;19.026;2023-05-07T15:05:11;51.64;36.72;68.42;;
76338;Laerm;20358;50.272;19.026;2023-05-07T15:08:18;51.25;38.96;67.34;;
76338;Laerm;20358;50.272;19.026;2023-05-07T15:11:23;59.97;41.51;83.02;;
76338;Laerm;20358;50.272;19.026;2023-05-07T15:14:30;63.15;43.95;86.71;;
76338;Laerm;20358;50.272;19.026;2023-05-07T15:17:36;59.23;42.36;77.61;;
76338;Laerm;20358;50.272;19.026;2023-05-07T15:20:46;56.23;39.42;78.05;;
76338;Laerm;20358;50.272;19.026;2023-05-07T15:23:51;50.98;40.44;62.23;;
76338;Laerm;20358;50.272;19.026;2023-05-07T15:26:58;50.93;39.94;69.40;;
76338;Laerm;20358;50.272;19.026;2023-05-07T15:30:09;51.65;38.76;69.53;;
76338;Laerm;20358;50.272;19.026;2023-05-07T15:33:17;50.15;38.55;65.72;;
76338;Laerm;20358;50.272;19.026;2023-05-07T15:36:25;50.29;36.38;67.40;;
76338;Laerm;20358;50.272;19.026;2023-05-07T15:39:34;50.30;36.98;68.26;;
76338;Laerm;20358;50.272;19.026;2023-05-07T15:42:39;51.20;38.04;64.03;;
76338;Laerm;20358;50.272;19.026;2023-05-07T15:45:46;51.17;39.32;67.11;;
76338;Laerm;20358;50.272;19.026;2023-05-07T15:48:53;52.07;40.85;70.86;;
76338;Laerm;20358;50.272;19.026;2023-05-07T15:52:03;51.71;39.54;68.38;;
76338;Laerm;20358;50.272;19.026;2023-05-07T15:55:09;51.30;38.99;68.36;;
76338;Laerm;20358;50.272;19.026;2023-05-07T15:58:16;49.68;39.67;67.58;;
76338;Laerm;20358;50.272;19.026;2023-05-07T16:01:22;55.63;40.52;79.61;;
76338;Laerm;20358;50.272;19.026;2023-05-07T16:04:29;51.21;36.35;71.26;;
76338;Laerm;20358;50.272;19.026;2023-05-07T16:07:39;50.95;38.73;66.02;;
76338;Laerm;20358;50.272;19.026;2023-05-07T16:10:47;49.95;38.37;66.87;;
76338;Laerm;20358;50.272;19.026;2023-05-07T16:13:52;50.34;37.57;69.28;;
76338;Laerm;20358;50.272;19.026;2023-05-07T16:16:59;50.27;37.51;68.07;;
76338;Laerm;20358;50.272;19.026;2023-05-07T16:20:07;53.24;38.53;73.33;;
76338;Laerm;20358;50.272;19.026;2023-05-07T16:23:18;50.39;36.55;65.29;;
76338;Laerm;20358;50.272;19.026;2023-05-07T16:26:24;48.66;36.44;69.74;;
76338;Laerm;20358;50.272;19.026;2023-05-07T16:29:30;51.14;38.08;71.90;;
76338;Laerm;20358;50.272;19.026;2023-05-07T16:32:36;53.53;37.59;73.79;;
76338;Laerm;20358;50.272;19.026;2023-05-07T16:35:50;52.48;39.46;69.72;;
76338;Laerm;20358;50.272;19.026;2023-05-07T16:38:59;50.01;38.00;64.81;;
76338;Laerm;20358;50.272;19.026;2023-05-07T16:42:06;49.06;37.86;64.69;;
76338;Laerm;20358;50.272;19.026;2023-05-07T16:45:12;51.18;38.32;66.81;;
76338;Laerm;20358;50.272;19.026;2023-05-07T16:48:21;48.88;37.60;68.78;;
76338;Laerm;20358;50.272;19.026;2023-05-07T16:51:27;51.44;39.09;69.23;;
76338;Laerm;20358;50.272;19.026;2023-05-07T16:54:37;50.17;38.81;69.75;;
76338;Laerm;20358;50.272;19.026;2023-05-07T16:57:44;51.49;42.09;68.55;;
76338;Laerm;20358;50.272;19.026;2023-05-07T17:00:51;48.94;38.16;66.38;;
76338;Laerm;20358;50.272;19.026;2023-05-07T17:03:57;50.37;36.90;67.84;;
76338;Laerm;20358;50.272;19.026;2023-05-07T17:07:04;50.51;37.59;68.48;;
76338;Laerm;20358;50.272;19.026;2023-05-07T17:10:13;50.39;38.86;69.29;;
76338;Laerm;20358;50.272;19.026;2023-05-07T17:13:20;50.56;38.03;65.96;;
76338;Laerm;20358;50.272;19.026;2023-05-07T17:16:28;49.46;37.28;69.98;;
76338;Laerm;20358;50.272;19.026;2023-05-07T17:19:37;50.63;37.28;66.97;;
76338;Laerm;20358;50.272;19.026;2023-05-07T17:22:43;51.16;38.43;65.60;;
76338;Laerm;20358;50.272;19.026;2023-05-07T17:25:53;48.06;36.15;58.47;;